createdAt,value
2023-01-21T00:00:34.347Z,96182.69
2023-01-21T00:01:35.964Z,96177.69
2023-01-21T00:02:37.717Z,96176.63
2023-01-21T00:03:39.499Z,96171.66
2023-01-21T00:04:41.136Z,96174.78
2023-01-21T00:05:42.664Z,96180.91
2023-01-21T00:06:44.213Z,96187.03
2023-01-21T00:07:45.728Z,96185.28
2023-01-21T00:08:47.295Z,96176.88
2023-01-21T00:09:48.868Z,96184.69
2023-01-21T00:10:50.428Z,96180.91
2023-01-21T00:11:51.929Z,96187.34
2023-01-21T00:12:53.473Z,96192.16
2023-01-21T00:13:55.244Z,96185.47
2023-01-21T00:14:56.807Z,96185.91
2023-01-21T00:15:58.320Z,96177.34
2023-01-21T00:16:59.923Z,96176.22
2023-01-21T00:18:01.499Z,96181.09
2023-01-21T00:19:03.040Z,96180.75
2023-01-21T00:20:06.266Z,96180.00
2023-01-21T00:21:07.824Z,96183.09
2023-01-21T00:22:09.469Z,96169.03
2023-01-21T00:23:11.079Z,96177.16
2023-01-21T00:24:12.633Z,96177.16
2023-01-21T00:25:14.227Z,96180.28
2023-01-21T00:26:15.806Z,96174.66
2023-01-21T00:27:17.308Z,96171.22
2023-01-21T00:28:18.975Z,96177.66
2023-01-21T00:29:21.789Z,96171.53
2023-01-21T00:30:23.444Z,96176.38
2023-01-21T00:31:25.318Z,96175.94
2023-01-21T00:32:26.873Z,96173.72
2023-01-21T00:33:29.211Z,96168.84
2023-01-21T00:34:30.836Z,96173.41
2023-01-21T00:35:32.408Z,96169.53
2023-01-21T00:36:33.935Z,96166.22
2023-01-21T00:37:35.621Z,96168.88
2023-01-21T00:38:37.499Z,96165.75
2023-01-21T00:39:42.784Z,96160.59
2023-01-21T00:40:44.292Z,96162.66
2023-01-21T00:41:45.970Z,96167.16
2023-01-21T00:42:47.727Z,96167.44
2023-01-21T00:43:49.227Z,96170.81
2023-01-21T00:44:50.793Z,96175.69
2023-01-21T00:45:52.415Z,96170.44
2023-01-21T00:46:53.937Z,96172.59
2023-01-21T00:47:55.469Z,96166.06
2023-01-21T00:48:57.059Z,96167.16
2023-01-21T00:49:58.595Z,96172.00
2023-01-21T00:51:01.002Z,96169.38
2023-01-21T00:52:02.724Z,96172.31
2023-01-21T00:53:04.232Z,96164.69
2023-01-21T00:54:05.823Z,96175.28
2023-01-21T00:55:07.658Z,96173.13
2023-01-21T00:56:12.600Z,96170.00
2023-01-21T00:57:14.415Z,96168.28
2023-01-21T00:58:16.119Z,96164.38
2023-01-21T00:59:17.738Z,96172.66
2023-01-21T01:00:19.636Z,96181.19
2023-01-21T01:01:22.593Z,96171.13
2023-01-21T01:02:24.189Z,96169.22
2023-01-21T01:03:25.774Z,96171.25
2023-01-21T01:04:27.333Z,96163.28
2023-01-21T01:05:28.931Z,96167.88
2023-01-21T01:06:30.511Z,96173.47
2023-01-21T01:07:32.069Z,96163.69
2023-01-21T01:08:33.681Z,96165.13
2023-01-21T01:09:35.268Z,96163.41
2023-01-21T01:10:37.756Z,96165.72
2023-01-21T01:11:39.600Z,96162.47
2023-01-21T01:12:41.176Z,96157.00
2023-01-21T01:13:43.567Z,96155.75
2023-01-21T01:14:45.097Z,96160.91
2023-01-21T01:15:47.531Z,96157.47
2023-01-21T01:16:49.818Z,96145.16
2023-01-21T01:17:51.370Z,96148.75
2023-01-21T01:18:53.076Z,96145.28
2023-01-21T01:19:54.605Z,96149.66
2023-01-21T01:20:57.087Z,96154.34
2023-01-21T01:21:58.731Z,96140.94
2023-01-21T01:23:00.277Z,96138.41
2023-01-21T01:24:03.168Z,96135.91
2023-01-21T01:25:04.987Z,96143.41
2023-01-21T01:26:10.039Z,96144.97
2023-01-21T01:27:11.579Z,96137.16
2023-01-21T01:28:13.140Z,96130.91
2023-01-21T01:29:14.735Z,96134.97
2023-01-21T01:30:16.689Z,96138.44
2023-01-21T01:31:20.042Z,96144.34
2023-01-21T01:32:21.727Z,96140.59
2023-01-21T01:33:24.789Z,96149.66
2023-01-21T01:34:26.296Z,96159.19
2023-01-21T01:35:28.157Z,96158.75
2023-01-21T01:36:29.675Z,96156.38
2023-01-21T01:37:31.209Z,96146.56
2023-01-21T01:38:34.759Z,96131.84
2023-01-21T01:39:36.285Z,96141.22
2023-01-21T01:40:37.783Z,96144.81
2023-01-21T01:41:39.329Z,96144.16
2023-01-21T01:42:40.939Z,96148.81
2023-01-21T01:44:01.929Z,96152.22
2023-01-21T01:45:14.680Z,96146.13
2023-01-21T01:46:16.453Z,96134.53
2023-01-21T01:47:18.860Z,96135.31
2023-01-21T01:48:28.772Z,96135.38
2023-01-21T01:49:30.368Z,96145.91
2023-01-21T01:50:39.566Z,96138.09
2023-01-21T01:51:54.800Z,96133.38
2023-01-21T01:53:00.955Z,96140.88
2023-01-21T01:54:02.949Z,96144.06
2023-01-21T01:55:05.876Z,96148.31
2023-01-21T01:56:07.730Z,96142.63
2023-01-21T01:57:12.787Z,96143.13
2023-01-21T01:58:17.299Z,96135.16
2023-01-21T01:59:19.542Z,96134.41
2023-01-21T02:00:21.640Z,96127.28
2023-01-21T02:01:24.103Z,96120.25
2023-01-21T02:02:25.648Z,96103.81
2023-01-21T02:03:45.378Z,96120.19
2023-01-21T02:05:01.941Z,96115.63
2023-01-21T02:06:03.629Z,96124.13
2023-01-21T02:07:05.273Z,96116.38
2023-01-21T02:08:08.688Z,96102.25
2023-01-21T02:09:10.253Z,96112.59
2023-01-21T02:10:14.437Z,96104.91
2023-01-21T02:11:18.614Z,96098.81
2023-01-21T02:12:20.554Z,96103.16
2023-01-21T02:13:27.191Z,96100.66
2023-01-21T02:14:30.526Z,96092.81
2023-01-21T02:15:46.096Z,96088.88
2023-01-21T02:17:05.775Z,96088.66
2023-01-21T02:18:32.369Z,96076.25
2023-01-21T02:19:53.443Z,96070.28
2023-01-21T02:21:03.505Z,96077.94
2023-01-21T02:22:16.280Z,96075.78
2023-01-21T02:23:37.056Z,96079.97
2023-01-21T02:25:05.582Z,96088.69
2023-01-21T02:26:44.445Z,96080.81
2023-01-21T02:28:09.180Z,96081.78
2023-01-21T02:29:21.893Z,96093.31
2023-01-21T02:30:55.737Z,96085.75
2023-01-21T02:32:22.205Z,96070.97
2023-01-21T02:33:34.625Z,96078.25
2023-01-21T02:34:59.135Z,96066.66
2023-01-21T02:36:45.074Z,96057.19
2023-01-21T02:37:58.731Z,96061.91
2023-01-21T02:39:16.929Z,96065.13
2023-01-21T02:40:26.804Z,96068.47
2023-01-21T02:41:38.353Z,96069.59
2023-01-21T02:42:50.624Z,96083.50
2023-01-21T02:44:13.583Z,96068.72
2023-01-21T02:45:27.389Z,96072.63
2023-01-21T02:47:02.969Z,96068.69
2023-01-21T02:48:47.508Z,96067.50
2023-01-21T02:50:13.100Z,96066.84
2023-01-21T02:51:14.684Z,96066.22
2023-01-21T02:52:21.247Z,96063.69
2023-01-21T02:53:31.261Z,96052.50
2023-01-21T02:54:41.447Z,96053.28
2023-01-21T02:55:43.610Z,96050.94
2023-01-21T02:56:45.178Z,96043.13
2023-01-21T02:57:54.211Z,96045.91
2023-01-21T02:59:06.000Z,96038.09
2023-01-21T03:00:19.001Z,96028.41
2023-01-21T03:01:43.433Z,96022.94
2023-01-21T03:02:54.906Z,96026.19
2023-01-21T03:04:02.167Z,96020.59
2023-01-21T03:05:10.156Z,96027.00
2023-01-21T03:06:44.633Z,96023.81
2023-01-21T03:07:59.457Z,96034.16
2023-01-21T03:09:13.185Z,96037.97
2023-01-21T03:10:27.248Z,96029.28
2023-01-21T03:11:29.341Z,96040.81
2023-01-21T03:12:48.606Z,96047.06
2023-01-21T03:14:13.436Z,96036.81
2023-01-21T03:15:47.161Z,96023.06
2023-01-21T03:17:00.052Z,96021.97
2023-01-21T03:18:10.121Z,96015.13
2023-01-21T03:19:14.973Z,96014.22
2023-01-21T03:20:22.407Z,96004.22
2023-01-21T03:21:27.341Z,96008.63
2023-01-21T03:22:34.511Z,96012.50
2023-01-21T03:23:42.426Z,96009.34
2023-01-21T03:24:49.727Z,96010.59
2023-01-21T03:25:51.429Z,96011.88
2023-01-21T03:26:57.182Z,96013.75
2023-01-21T03:28:02.330Z,96010.00
2023-01-21T03:29:14.853Z,96010.94
2023-01-21T03:30:20.047Z,96009.41
2023-01-21T03:31:28.293Z,96006.91
2023-01-21T03:32:34.341Z,95997.84
2023-01-21T03:33:40.248Z,95995.84
2023-01-21T03:34:47.198Z,96000.06
2023-01-21T03:35:52.239Z,95996.94
2023-01-21T03:37:20.261Z,96009.72
2023-01-21T03:38:31.484Z,96011.56
2023-01-21T03:39:48.660Z,96001.41
2023-01-21T03:40:59.274Z,96007.66
2023-01-21T03:42:01.687Z,95998.28
2023-01-21T03:43:04.032Z,96001.25
2023-01-21T03:44:06.429Z,96007.31
2023-01-21T03:45:09.095Z,96004.06
2023-01-21T03:46:21.677Z,95998.47
2023-01-21T03:47:31.333Z,96003.47
2023-01-21T03:48:39.147Z,96001.91
2023-01-21T03:49:58.254Z,96006.56
2023-01-21T03:51:06.820Z,96003.47
2023-01-21T03:52:10.498Z,96004.56
2023-01-21T03:53:12.144Z,96009.88
2023-01-21T03:54:14.367Z,96017.06
2023-01-21T03:55:18.406Z,96015.34
2023-01-21T03:56:19.955Z,96008.78
2023-01-21T03:57:21.525Z,96004.75
2023-01-21T03:58:23.094Z,96007.25
2023-01-21T03:59:24.735Z,96012.56
2023-01-21T04:00:26.298Z,96014.41
2023-01-21T04:01:27.946Z,96012.38
2023-01-21T04:02:29.897Z,96014.88
2023-01-21T04:03:31.473Z,96018.16
2023-01-21T04:04:32.998Z,96015.34
2023-01-21T04:05:36.010Z,96014.72
2023-01-21T04:06:37.538Z,96013.47
2023-01-21T04:07:39.106Z,96012.88
2023-01-21T04:08:40.786Z,96012.69
2023-01-21T04:09:42.385Z,96004.56
2023-01-21T04:10:43.966Z,95990.69
2023-01-21T04:11:45.570Z,95977.28
2023-01-21T04:12:47.097Z,95974.63
2023-01-21T04:13:48.592Z,95970.56
2023-01-21T04:14:50.087Z,95963.69
2023-01-21T04:15:51.611Z,95947.91
2023-01-21T04:16:53.209Z,95949.50
2023-01-21T04:17:54.769Z,95951.97
2023-01-21T04:18:56.329Z,95952.13
2023-01-21T04:19:57.829Z,95957.28
2023-01-21T04:20:59.586Z,95958.38
2023-01-21T04:22:01.597Z,95974.16
2023-01-21T04:23:03.139Z,95977.56
2023-01-21T04:24:05.099Z,95985.53
2023-01-21T04:25:06.807Z,95979.38
2023-01-21T04:26:08.440Z,95973.44
2023-01-21T04:27:09.974Z,95975.31
2023-01-21T04:28:11.477Z,95982.50
2023-01-21T04:29:13.063Z,95985.50
2023-01-21T04:30:15.013Z,95988.97
2023-01-21T04:31:16.849Z,95986.28
2023-01-21T04:32:18.466Z,95998.50
2023-01-21T04:33:20.859Z,95988.81
2023-01-21T04:34:22.471Z,95978.53
2023-01-21T04:35:24.137Z,95971.66
2023-01-21T04:36:25.771Z,95967.28
2023-01-21T04:37:27.345Z,95961.81
2023-01-21T04:38:28.925Z,95960.25
2023-01-21T04:39:30.501Z,95958.06
2023-01-21T04:40:32.248Z,95951.00
2023-01-21T04:41:33.831Z,95954.59
2023-01-21T04:42:35.387Z,95956.00
2023-01-21T04:43:36.944Z,95962.09
2023-01-21T04:44:38.453Z,95962.69
2023-01-21T04:45:40.089Z,95964.06
2023-01-21T04:46:41.860Z,95975.78
2023-01-21T04:47:43.892Z,95984.81
2023-01-21T04:48:45.420Z,95960.09
2023-01-21T04:49:48.799Z,95962.13
2023-01-21T04:50:50.374Z,95964.94
2023-01-21T04:51:52.064Z,95963.81
2023-01-21T04:52:53.589Z,95965.53
2023-01-21T04:53:55.218Z,95969.44
2023-01-21T04:54:56.755Z,95966.47
2023-01-21T04:55:58.336Z,95964.53
2023-01-21T04:56:59.951Z,95968.13
2023-01-21T04:58:01.495Z,95970.28
2023-01-21T04:59:03.078Z,95983.25
2023-01-21T05:00:06.590Z,95987.00
2023-01-21T05:01:08.182Z,95981.50
2023-01-21T05:02:09.731Z,95980.25
2023-01-21T05:03:11.333Z,95977.06
2023-01-21T05:04:12.910Z,95977.41
2023-01-21T05:05:14.488Z,95974.09
2023-01-21T05:06:16.083Z,95976.38
2023-01-21T05:07:19.546Z,95982.34
2023-01-21T05:08:22.356Z,95986.28
2023-01-21T05:09:23.902Z,95983.31
2023-01-21T05:10:25.486Z,95980.06
2023-01-21T05:11:27.093Z,95979.28
2023-01-21T05:12:28.727Z,95979.41
2023-01-21T05:13:30.301Z,95972.81
2023-01-21T05:14:31.903Z,95983.06
2023-01-21T05:15:33.546Z,95984.47
2023-01-21T05:16:35.101Z,95984.91
2023-01-21T05:17:36.719Z,95991.16
2023-01-21T05:18:38.824Z,95984.41
2023-01-21T05:19:40.359Z,95985.66
2023-01-21T05:20:41.883Z,95983.91
2023-01-21T05:21:43.378Z,95982.16
2023-01-21T05:22:48.820Z,95984.16
2023-01-21T05:23:50.366Z,95984.16
2023-01-21T05:24:51.934Z,95997.16
2023-01-21T05:25:53.473Z,96001.31
2023-01-21T05:26:55.073Z,96000.50
2023-01-21T05:27:56.658Z,96011.13
2023-01-21T05:28:58.212Z,96008.13
2023-01-21T05:29:59.726Z,96006.91
2023-01-21T05:31:02.151Z,96005.72
2023-01-21T05:32:03.884Z,95998.22
2023-01-21T05:33:05.440Z,96005.13
2023-01-21T05:34:07.130Z,96007.69
2023-01-21T05:35:09.017Z,95997.34
2023-01-21T05:36:10.657Z,95996.38
2023-01-21T05:37:12.282Z,96005.06
2023-01-21T05:38:13.823Z,96003.78
2023-01-21T05:39:15.425Z,95999.25
2023-01-21T05:40:18.084Z,95998.47
2023-01-21T05:41:21.038Z,96003.47
2023-01-21T05:42:22.783Z,95997.94
2023-01-21T05:43:24.767Z,96007.16
2023-01-21T05:44:26.599Z,96012.03
2023-01-21T05:45:28.150Z,96012.47
2023-01-21T05:46:29.759Z,96020.28
2023-01-21T05:47:31.332Z,96014.31
2023-01-21T05:48:33.019Z,96013.53
2023-01-21T05:49:35.208Z,96014.44
2023-01-21T05:50:38.597Z,96013.03
2023-01-21T05:51:40.146Z,96009.22
2023-01-21T05:52:41.998Z,96003.91
2023-01-21T05:53:44.370Z,96013.13
2023-01-21T05:55:00.689Z,96003.66
2023-01-21T05:56:03.902Z,96012.47
2023-01-21T05:57:05.518Z,96006.97
2023-01-21T05:58:07.247Z,96010.56
2023-01-21T05:59:09.574Z,96012.75
2023-01-21T06:00:11.739Z,96011.34
2023-01-21T06:01:13.272Z,96004.38
2023-01-21T06:02:14.852Z,96015.59
2023-01-21T06:03:17.673Z,96011.69
2023-01-21T06:04:19.382Z,96018.16
2023-01-21T06:05:20.995Z,96026.38
2023-01-21T06:06:22.536Z,96025.06
2023-01-21T06:07:24.160Z,96020.66
2023-01-21T06:08:25.848Z,96015.09
2023-01-21T06:09:27.388Z,96020.84
2023-01-21T06:10:28.911Z,96015.78
2023-01-21T06:11:30.741Z,96017.94
2023-01-21T06:12:32.293Z,96026.03
2023-01-21T06:13:33.883Z,96024.94
2023-01-21T06:14:35.419Z,96030.53
2023-01-21T06:15:36.997Z,96030.22
2023-01-21T06:16:38.535Z,96029.56
2023-01-21T06:17:40.525Z,96042.88
2023-01-21T06:18:42.237Z,96033.13
2023-01-21T06:19:43.793Z,96038.00
2023-01-21T06:20:45.411Z,96040.78
2023-01-21T06:21:46.906Z,96043.13
2023-01-21T06:22:48.477Z,96041.53
2023-01-21T06:23:49.985Z,96038.31
2023-01-21T06:24:51.480Z,96040.66
2023-01-21T06:25:53.122Z,96051.44
2023-01-21T06:26:54.781Z,96053.16
2023-01-21T06:27:56.716Z,96063.13
2023-01-21T06:28:58.243Z,96060.00
2023-01-21T06:29:59.748Z,96050.13
2023-01-21T06:31:01.397Z,96056.25
2023-01-21T06:32:03.410Z,96058.72
2023-01-21T06:33:05.075Z,96044.97
2023-01-21T06:34:06.601Z,96041.00
2023-01-21T06:35:08.576Z,96038.38
2023-01-21T06:36:10.454Z,96048.50
2023-01-21T06:37:19.121Z,96036.63
2023-01-21T06:38:20.628Z,96046.44
2023-01-21T06:39:22.218Z,96044.75
2023-01-21T06:40:24.694Z,96037.34
2023-01-21T06:41:26.279Z,96041.78
2023-01-21T06:42:27.877Z,96055.81
2023-01-21T06:43:29.499Z,96055.38
2023-01-21T06:44:31.201Z,96053.91
2023-01-21T06:45:32.739Z,96047.81
2023-01-21T06:46:34.404Z,96032.66
2023-01-21T06:47:36.026Z,96043.34
2023-01-21T06:48:37.600Z,96043.56
2023-01-21T06:49:39.457Z,96048.47
2023-01-21T06:50:41.004Z,96045.34
2023-01-21T06:51:43.136Z,96052.25
2023-01-21T06:52:47.078Z,96058.28
2023-01-21T06:53:48.585Z,96058.28
2023-01-21T06:54:50.239Z,96062.94
2023-01-21T06:55:51.750Z,96060.72
2023-01-21T06:56:53.327Z,96055.38
2023-01-21T06:57:54.892Z,96052.72
2023-01-21T06:58:56.494Z,96046.69
2023-01-21T06:59:58.042Z,96044.47
2023-01-21T07:00:59.604Z,96057.94
2023-01-21T07:02:01.471Z,96057.59
2023-01-21T07:03:03.092Z,96046.69
2023-01-21T07:04:04.721Z,96045.13
2023-01-21T07:05:06.705Z,96050.91
2023-01-21T07:06:09.894Z,96051.34
2023-01-21T07:07:11.549Z,96049.25
2023-01-21T07:08:13.083Z,96049.47
2023-01-21T07:09:14.624Z,96047.81
2023-01-21T07:10:16.863Z,96044.13
2023-01-21T07:11:18.566Z,96034.66
2023-01-21T07:12:20.123Z,96041.34
2023-01-21T07:13:21.701Z,96029.19
2023-01-21T07:14:23.253Z,96036.88
2023-01-21T07:15:24.904Z,96040.19
2023-01-21T07:16:27.005Z,96040.09
2023-01-21T07:17:28.535Z,96036.56
2023-01-21T07:18:30.108Z,96031.75
2023-01-21T07:19:31.660Z,96031.31
2023-01-21T07:20:33.213Z,96030.19
2023-01-21T07:21:34.799Z,96033.97
2023-01-21T07:22:36.371Z,96030.19
2023-01-21T07:23:37.929Z,96031.75
2023-01-21T07:24:39.476Z,96018.81
2023-01-21T07:25:41.030Z,96021.84
2023-01-21T07:26:43.244Z,96028.41
2023-01-21T07:27:44.756Z,96016.69
2023-01-21T07:28:46.421Z,96023.06
2023-01-21T07:29:47.990Z,96036.19
2023-01-21T07:30:49.560Z,96041.97
2023-01-21T07:31:51.521Z,96042.84
2023-01-21T07:32:53.115Z,96040.63
2023-01-21T07:33:54.848Z,96040.19
2023-01-21T07:34:56.370Z,96046.63
2023-01-21T07:35:57.877Z,96040.19
2023-01-21T07:36:59.487Z,96045.97
2023-01-21T07:38:01.569Z,96043.63
2023-01-21T07:39:03.393Z,96045.97
2023-01-21T07:40:05.340Z,96034.59
2023-01-21T07:41:06.849Z,96045.28
2023-01-21T07:42:10.299Z,96049.94
2023-01-21T07:43:11.905Z,96053.06
2023-01-21T07:44:13.508Z,96044.03
2023-01-21T07:45:15.528Z,96038.69
2023-01-21T07:46:21.353Z,96050.25
2023-01-21T07:47:23.212Z,96048.72
2023-01-21T07:48:24.793Z,96041.88
2023-01-21T07:49:26.348Z,96045.00
2023-01-21T07:50:27.885Z,96045.09
2023-01-21T07:51:29.407Z,96038.97
2023-01-21T07:52:32.266Z,96047.44
2023-01-21T07:53:33.858Z,96042.41
2023-01-21T07:54:35.378Z,96049.47
2023-01-21T07:55:37.436Z,96043.34
2023-01-21T07:56:39.178Z,96034.91
2023-01-21T07:57:40.833Z,96049.38
2023-01-21T07:58:42.486Z,96042.47
2023-01-21T07:59:44.095Z,96033.59
2023-01-21T08:00:45.697Z,96031.59
2023-01-21T08:01:47.329Z,96036.59
2023-01-21T08:02:54.176Z,96031.78
2023-01-21T08:03:55.760Z,96043.59
2023-01-21T08:04:57.272Z,96047.81
2023-01-21T08:05:58.808Z,96041.78
2023-01-21T08:07:01.945Z,96037.22
2023-01-21T08:08:03.566Z,96043.34
2023-01-21T08:09:05.239Z,96048.91
2023-01-21T08:10:06.974Z,96044.59
2023-01-21T08:11:08.565Z,96044.97
2023-01-21T08:12:10.689Z,96047.41
2023-01-21T08:13:12.210Z,96051.97
2023-01-21T08:14:13.920Z,96058.09
2023-01-21T08:15:15.723Z,96057.41
2023-01-21T08:16:17.508Z,96060.59
2023-01-21T08:17:19.120Z,96057.59
2023-01-21T08:18:24.801Z,96056.03
2023-01-21T08:19:26.514Z,96059.75
2023-01-21T08:20:28.131Z,96063.88
2023-01-21T08:21:29.825Z,96060.28
2023-01-21T08:22:31.432Z,96051.97
2023-01-21T08:23:32.943Z,96062.34
2023-01-21T08:24:34.547Z,96069.84
2023-01-21T08:25:36.224Z,96074.44
2023-01-21T08:26:38.134Z,96067.34
2023-01-21T08:27:39.673Z,96070.03
2023-01-21T08:28:41.323Z,96070.38
2023-01-21T08:29:43.169Z,96081.22
2023-01-21T08:30:44.941Z,96073.47
2023-01-21T08:31:46.626Z,96078.81
2023-01-21T08:32:48.233Z,96083.28
2023-01-21T08:33:53.367Z,96082.44
2023-01-21T08:34:55.130Z,96090.69
2023-01-21T08:36:01.186Z,96077.31
2023-01-21T08:37:02.870Z,96077.75
2023-01-21T08:38:04.674Z,96073.38
2023-01-21T08:39:06.400Z,96066.38
2023-01-21T08:40:08.635Z,96077.94
2023-01-21T08:41:10.842Z,96077.94
2023-01-21T08:42:12.411Z,96078.81
2023-01-21T08:43:13.948Z,96088.72
2023-01-21T08:44:15.528Z,96078.63
2023-01-21T08:45:17.556Z,96075.59
2023-01-21T08:46:19.330Z,96087.09
2023-01-21T08:47:20.954Z,96082.59
2023-01-21T08:48:22.611Z,96094.09
2023-01-21T08:49:24.139Z,96087.69
2023-01-21T08:50:25.916Z,96079.09
2023-01-21T08:51:27.428Z,96074.59
2023-01-21T08:52:28.957Z,96075.63
2023-01-21T08:53:30.515Z,96081.34
2023-01-21T08:54:32.034Z,96084.13
2023-01-21T08:55:33.638Z,96082.31
2023-01-21T08:56:35.318Z,96079.38
2023-01-21T08:57:36.889Z,96080.06
2023-01-21T08:58:38.627Z,96075.97
2023-01-21T08:59:40.131Z,96066.41
2023-01-21T09:00:41.999Z,96067.53
2023-01-21T09:01:43.672Z,96064.84
2023-01-21T09:02:45.477Z,96066.81
2023-01-21T09:03:47.053Z,96065.00
2023-01-21T09:04:50.560Z,96060.44
2023-01-21T09:05:53.021Z,96055.00
2023-01-21T09:06:54.652Z,96054.94
2023-01-21T09:07:58.179Z,96050.63
2023-01-21T09:09:00.013Z,96053.69
2023-01-21T09:10:02.246Z,96050.94
2023-01-21T09:11:06.955Z,96056.13
2023-01-21T09:12:08.736Z,96049.22
2023-01-21T09:13:10.955Z,96056.91
2023-01-21T09:14:12.489Z,96056.50
2023-01-21T09:15:14.142Z,96056.97
2023-01-21T09:16:18.880Z,96057.88
2023-01-21T09:17:20.529Z,96062.84
2023-01-21T09:18:22.181Z,96067.34
2023-01-21T09:19:24.013Z,96068.97
2023-01-21T09:20:25.558Z,96065.97
2023-01-21T09:21:27.586Z,96077.63
2023-01-21T09:22:29.080Z,96063.56
2023-01-21T09:23:34.102Z,96061.72
2023-01-21T09:24:35.636Z,96060.50
2023-01-21T09:25:37.154Z,96060.88
2023-01-21T09:26:44.015Z,96054.25
2023-01-21T09:27:45.572Z,96056.03
2023-01-21T09:28:53.115Z,96067.31
2023-01-21T09:29:54.860Z,96061.81
2023-01-21T09:31:01.788Z,96065.00
2023-01-21T09:32:05.246Z,96064.22
2023-01-21T09:33:06.868Z,96072.56
2023-01-21T09:34:11.759Z,96078.06
2023-01-21T09:35:13.439Z,96071.41
2023-01-21T09:36:19.081Z,96072.34
2023-01-21T09:37:20.624Z,96063.41
2023-01-21T09:38:22.492Z,96068.84
2023-01-21T09:39:24.367Z,96068.19
2023-01-21T09:40:25.889Z,96062.88
2023-01-21T09:41:39.644Z,96066.03
2023-01-21T09:42:42.801Z,96063.88
2023-01-21T09:43:49.497Z,96067.66
2023-01-21T09:44:53.758Z,96066.25
2023-01-21T09:46:03.817Z,96070.03
2023-01-21T09:47:29.014Z,96064.28
2023-01-21T09:48:40.320Z,96056.66
2023-01-21T09:49:51.341Z,96061.91
2023-01-21T09:50:53.804Z,96061.66
2023-01-21T09:52:13.787Z,96064.13
2023-01-21T09:53:28.483Z,96072.25
2023-01-21T09:54:34.133Z,96072.41
2023-01-21T09:55:37.604Z,96068.91
2023-01-21T09:57:09.925Z,96064.16
2023-01-21T09:58:18.694Z,96066.22
2023-01-21T09:59:40.067Z,96062.09
2023-01-21T10:01:24.400Z,96047.94
2023-01-21T10:02:32.085Z,96052.72
2023-01-21T10:03:43.745Z,96041.69
2023-01-21T10:04:59.811Z,96035.19
2023-01-21T10:06:22.044Z,96040.84
2023-01-21T10:07:32.756Z,96030.81
2023-01-21T10:08:46.059Z,96040.44
2023-01-21T10:10:18.225Z,96049.75
2023-01-21T10:11:28.515Z,96043.53
2023-01-21T10:13:16.276Z,96042.91
2023-01-21T10:14:39.447Z,96036.44
2023-01-21T10:15:56.049Z,96036.84
2023-01-21T10:17:15.949Z,96034.47
2023-01-21T10:18:24.888Z,96035.50
2023-01-21T10:19:35.692Z,96036.13
2023-01-21T10:20:52.287Z,96034.88
2023-01-21T10:22:15.612Z,96042.91
2023-01-21T10:23:29.327Z,96044.31
2023-01-21T10:24:38.709Z,96041.34
2023-01-21T10:25:41.146Z,96028.41
2023-01-21T10:26:47.143Z,96030.88
2023-01-21T10:27:48.744Z,96026.16
2023-01-21T10:28:55.055Z,96028.22
2023-01-21T10:30:02.217Z,96036.50
2023-01-21T10:31:23.434Z,96034.41
2023-01-21T10:32:27.140Z,96028.81
2023-01-21T10:33:32.959Z,96034.38
2023-01-21T10:34:40.109Z,96022.72
2023-01-21T10:36:03.769Z,96015.03
2023-01-21T10:37:23.376Z,96014.66
2023-01-21T10:38:49.460Z,96006.59
2023-01-21T10:39:56.836Z,95995.47
2023-01-21T10:41:07.611Z,95995.56
2023-01-21T10:42:34.655Z,96011.53
2023-01-21T10:43:36.182Z,96013.19
2023-01-21T10:44:56.534Z,96012.59
2023-01-21T10:46:24.456Z,96014.31
2023-01-21T10:47:48.081Z,96007.06
2023-01-21T10:48:58.159Z,96009.44
2023-01-21T10:50:30.276Z,96012.72
2023-01-21T10:51:41.393Z,96015.34
2023-01-21T10:52:50.636Z,96016.97
2023-01-21T10:53:56.460Z,96020.13
2023-01-21T10:55:21.053Z,96022.81
2023-01-21T10:56:50.212Z,96008.03
2023-01-21T10:57:58.401Z,96014.69
2023-01-21T10:59:07.714Z,96015.34
2023-01-21T11:00:34.083Z,96017.66
2023-01-21T11:01:40.724Z,96022.88
2023-01-21T11:02:42.555Z,96021.63
2023-01-21T11:03:48.392Z,96009.63
2023-01-21T11:04:51.246Z,96014.50
2023-01-21T11:05:52.862Z,96012.56
2023-01-21T11:07:03.239Z,96004.50
2023-01-21T11:08:04.909Z,96008.44
2023-01-21T11:09:10.708Z,96002.31
2023-01-21T11:10:22.238Z,96002.31
2023-01-21T11:11:30.362Z,96007.91
2023-01-21T11:12:32.965Z,96000.44
2023-01-21T11:13:35.519Z,96002.56
2023-01-21T11:14:37.142Z,96007.75
2023-01-21T11:15:44.576Z,96009.34
2023-01-21T11:16:49.552Z,96007.22
2023-01-21T11:17:59.701Z,96006.13
2023-01-21T11:19:02.712Z,96010.25
2023-01-21T11:20:16.735Z,96017.09
2023-01-21T11:21:22.651Z,96013.25
2023-01-21T11:22:25.253Z,96005.59
2023-01-21T11:23:35.976Z,96020.16
2023-01-21T11:24:46.502Z,96017.88
2023-01-21T11:25:49.106Z,96022.25
2023-01-21T11:26:55.410Z,96027.25
2023-01-21T11:27:56.974Z,96027.53
2023-01-21T11:29:16.156Z,96025.88
2023-01-21T11:30:51.559Z,96033.75
2023-01-21T11:32:04.980Z,96034.09
2023-01-21T11:33:32.887Z,96017.59
2023-01-21T11:34:34.605Z,96016.47
2023-01-21T11:35:36.726Z,96008.75
2023-01-21T11:36:53.445Z,96004.22
2023-01-21T11:37:55.229Z,96006.19
2023-01-21T11:39:05.485Z,96003.28
2023-01-21T11:40:12.150Z,96013.72
2023-01-21T11:41:13.626Z,96013.81
2023-01-21T11:42:17.255Z,96009.28
2023-01-21T11:43:48.234Z,96012.03
2023-01-21T11:44:53.863Z,96004.84
2023-01-21T11:45:55.773Z,96006.66
2023-01-21T11:46:57.456Z,96005.88
2023-01-21T11:48:00.277Z,96001.00
2023-01-21T11:49:07.607Z,96010.56
2023-01-21T11:50:30.325Z,96005.59
2023-01-21T11:51:32.718Z,95997.81
2023-01-21T11:52:34.239Z,96002.38
2023-01-21T11:53:35.869Z,95993.06
2023-01-21T11:54:41.685Z,95996.16
2023-01-21T11:55:52.893Z,96005.06
2023-01-21T11:57:02.871Z,95994.66
2023-01-21T11:58:04.556Z,95999.41
2023-01-21T11:59:34.743Z,95996.88
2023-01-21T12:00:36.548Z,95997.69
2023-01-21T12:01:38.176Z,96006.97
2023-01-21T12:02:45.802Z,96009.28
2023-01-21T12:04:01.013Z,96013.16
2023-01-21T12:05:13.113Z,96013.13
2023-01-21T12:06:24.331Z,96017.34
2023-01-21T12:07:34.102Z,96021.53
2023-01-21T12:08:38.534Z,96013.81
2023-01-21T12:09:40.426Z,96010.69
2023-01-21T12:10:46.667Z,96009.78
2023-01-21T12:12:31.357Z,96011.63
2023-01-21T12:13:46.208Z,96013.88
2023-01-21T12:14:54.221Z,96013.41
2023-01-21T12:16:14.313Z,96022.47
2023-01-21T12:17:45.001Z,96019.28
2023-01-21T12:19:20.310Z,96018.47
2023-01-21T12:20:40.312Z,96029.06
2023-01-21T12:22:03.661Z,96032.75
2023-01-21T12:23:37.736Z,96030.25
2023-01-21T12:25:07.724Z,96022.31
2023-01-21T12:26:21.142Z,96031.59
2023-01-21T12:27:41.076Z,96031.88
2023-01-21T12:29:02.571Z,96038.13
2023-01-21T12:30:16.785Z,96033.59
2023-01-21T12:31:25.130Z,96031.59
2023-01-21T12:32:37.384Z,96036.63
2023-01-21T12:33:50.556Z,96022.00
2023-01-21T12:34:58.184Z,96026.59
2023-01-21T12:36:14.410Z,96026.25
2023-01-21T12:37:33.175Z,96032.47
2023-01-21T12:38:41.060Z,96035.34
2023-01-21T12:39:44.996Z,96030.66
2023-01-21T12:41:27.256Z,96031.31
2023-01-21T12:42:34.969Z,96034.22
2023-01-21T12:43:48.297Z,96026.84
2023-01-21T12:45:04.850Z,96036.13
2023-01-21T12:46:19.697Z,96033.53
2023-01-21T12:47:40.162Z,96029.19
2023-01-21T12:49:06.467Z,96036.31
2023-01-21T12:50:36.232Z,96034.13
2023-01-21T12:51:42.253Z,96037.31
2023-01-21T12:53:13.549Z,96042.06
2023-01-21T12:54:48.191Z,96041.34
2023-01-21T12:55:58.931Z,96030.22